Burden Lake, New York
Current Conditions -  °F | °C
As of 5:51 AM on Monday 22 Dec 2014 (Local Time) from KALB Reporting Station
Light Snow Light Snow  
Wind Chill: 24°   Ceiling: 2300
Heat Index: 29°   Visibility: 3mi
Dew Point: 25°   Wind: 5mph
Humidity: 85%   Direction: 10°N
Pressure: 30.37"   Gusts: NA
Location:  42.6497°N, 73.5273°W
Report Text: KALB 221051Z 01004KT 3SM -SN BR OVC023 M02/M04 A3037 RMK AO2 SFC VIS 4 SLP286 P0001 T10171039
Loading
Personal Weather Stations






























Interactive Weather Map New forecast layout! Learn more

10-Day Weather Forecast

Advertisements
Track Severe Weather on mobile